createdAt,value
2023-04-15T00:02:33.022Z,95413.16
2023-04-15T00:07:54.028Z,95408.00
2023-04-15T00:13:15.519Z,95403.19
2023-04-15T00:18:37.527Z,95396.50
2023-04-15T00:23:58.292Z,95398.13
2023-04-15T00:29:19.036Z,95393.13
2023-04-15T00:34:40.247Z,95397.63
2023-04-15T00:40:02.052Z,95391.66
2023-04-15T00:45:23.325Z,95384.47
2023-04-15T00:50:44.269Z,95381.78
2023-04-15T00:56:05.932Z,95379.19
2023-04-15T01:01:27.364Z,95380.53
2023-04-15T01:06:48.368Z,95379.56
2023-04-15T01:12:15.576Z,95388.69
2023-04-15T01:17:36.614Z,95380.91
2023-04-15T01:23:01.481Z,95393.03
2023-04-15T01:28:22.456Z,95397.41
2023-04-15T01:33:43.417Z,95397.13
2023-04-15T01:39:05.666Z,95399.72
2023-04-15T01:44:26.584Z,95402.75
2023-04-15T01:49:47.267Z,95403.16
2023-04-15T01:55:09.167Z,95403.84
2023-04-15T02:00:30.773Z,95396.91
2023-04-15T02:05:52.207Z,95397.56
2023-04-15T02:11:13.016Z,95404.97
2023-04-15T02:16:34.244Z,95405.84
2023-04-15T02:21:54.804Z,95410.41
2023-04-15T02:27:17.778Z,95420.41
2023-04-15T02:32:39.328Z,95417.13
2023-04-15T02:38:01.050Z,95410.56
2023-04-15T02:43:22.451Z,95405.38
2023-04-15T02:48:45.172Z,95407.13
2023-04-15T02:54:05.804Z,95413.22
2023-04-15T02:59:26.834Z,95415.97
2023-04-15T03:04:47.926Z,95419.28
2023-04-15T03:10:09.566Z,95422.78
2023-04-15T03:15:30.947Z,95420.38
2023-04-15T03:20:51.633Z,95417.38
2023-04-15T03:26:31.705Z,95421.88
2023-04-15T03:31:56.340Z,95426.84
2023-04-15T03:37:17.239Z,95433.81
2023-04-15T03:42:38.163Z,95447.63
2023-04-15T03:48:07.328Z,95452.44
2023-04-15T03:53:37.068Z,95464.44
2023-04-15T03:58:57.724Z,95467.38
2023-04-15T04:04:18.612Z,95487.84
2023-04-15T04:09:40.678Z,95480.81
2023-04-15T04:15:01.768Z,95484.69
2023-04-15T04:20:22.720Z,95490.28
2023-04-15T04:25:43.711Z,95498.84
2023-04-15T04:31:04.602Z,95506.19
2023-04-15T04:36:25.241Z,95511.50
2023-04-15T04:41:46.072Z,95519.94
2023-04-15T04:47:07.666Z,95522.09
2023-04-15T04:52:28.591Z,95526.19
2023-04-15T04:57:49.214Z,95527.41
2023-04-15T05:03:10.193Z,95534.75
2023-04-15T05:08:31.525Z,95530.66
2023-04-15T05:13:52.149Z,95539.09
2023-04-15T05:19:12.998Z,95542.22
2023-04-15T05:24:33.727Z,95544.81
2023-04-15T05:29:54.653Z,95556.50
2023-04-15T05:35:15.421Z,95553.91
2023-04-15T05:40:36.985Z,95570.91
2023-04-15T05:45:57.840Z,95568.34
2023-04-15T05:51:18.626Z,95572.56
2023-04-15T05:56:39.378Z,95577.59
2023-04-15T06:02:00.343Z,95592.03
2023-04-15T06:07:21.162Z,95592.41
2023-04-15T06:12:42.166Z,95606.72
2023-04-15T06:18:03.324Z,95610.38
2023-04-15T06:23:24.883Z,95609.00
2023-04-15T06:28:47.079Z,95617.34
2023-04-15T06:34:07.846Z,95613.22
2023-04-15T06:39:28.997Z,95621.66
2023-04-15T06:44:50.006Z,95618.53
2023-04-15T06:50:11.616Z,95626.69
2023-04-15T06:55:32.433Z,95644.25
2023-04-15T07:00:53.272Z,95657.34
2023-04-15T07:06:14.427Z,95626.31
2023-04-15T07:11:35.405Z,95644.13
2023-04-15T07:16:56.547Z,95659.38
2023-04-15T07:22:17.176Z,95667.69
2023-04-15T07:27:38.182Z,95677.88
2023-04-15T07:32:59.284Z,95669.72
2023-04-15T07:38:20.444Z,95678.28
2023-04-15T07:43:41.276Z,95682.63
2023-04-15T07:49:02.273Z,95684.28
2023-04-15T07:54:23.538Z,95688.25
2023-04-15T07:59:44.380Z,95699.66
2023-04-15T08:05:05.530Z,95695.03
2023-04-15T08:10:26.389Z,95701.84
2023-04-15T08:16:13.649Z,95715.19
2023-04-15T08:21:34.688Z,95705.88
2023-04-15T08:26:56.763Z,95708.63
2023-04-15T08:32:17.605Z,95716.84
2023-04-15T08:37:38.354Z,95722.41
2023-04-15T08:43:00.064Z,95730.31
2023-04-15T08:48:24.587Z,95732.03
2023-04-15T08:53:47.576Z,95741.03
2023-04-15T08:59:09.861Z,95745.00
2023-04-15T09:04:31.506Z,95748.53
2023-04-15T09:09:52.916Z,95741.69
2023-04-15T09:15:14.331Z,95748.13
2023-04-15T09:20:42.742Z,95752.75
2023-04-15T09:26:04.900Z,95757.25
2023-04-15T09:31:31.359Z,95760.91
2023-04-15T09:36:55.103Z,95774.25
2023-04-15T09:42:17.040Z,95777.69
2023-04-15T09:47:38.423Z,95786.56
2023-04-15T09:52:59.887Z,95786.41
2023-04-15T09:58:21.590Z,95784.34
2023-04-15T10:03:42.795Z,95781.19
2023-04-15T10:09:03.615Z,95778.56
2023-04-15T10:14:26.668Z,95778.94
2023-04-15T10:19:49.452Z,95779.47
2023-04-15T10:25:11.807Z,95783.56
2023-04-15T10:30:34.082Z,95797.59
2023-04-15T10:35:56.151Z,95809.50
2023-04-15T10:41:21.901Z,95805.22
2023-04-15T10:46:45.174Z,95802.75
2023-04-15T10:52:08.484Z,95822.41
2023-04-15T10:57:36.267Z,95820.34
2023-04-15T11:03:07.478Z,95827.69
2023-04-15T11:09:13.464Z,95832.06
2023-04-15T11:14:35.977Z,95839.25
2023-04-15T11:19:58.211Z,95841.09
2023-04-15T11:25:26.628Z,95842.81
2023-04-15T11:30:48.398Z,95842.47
2023-04-15T11:36:10.774Z,95843.88
2023-04-15T11:41:31.861Z,95859.00
2023-04-15T11:46:52.544Z,95867.28
2023-04-15T11:52:13.293Z,95861.88
2023-04-15T11:57:35.364Z,95876.59
2023-04-15T12:03:31.098Z,95870.97
2023-04-15T12:09:03.829Z,95877.53
2023-04-15T12:14:28.349Z,95876.13
2023-04-15T12:19:50.185Z,95872.78
2023-04-15T12:25:10.948Z,95890.13
2023-04-15T12:30:32.854Z,95894.25
2023-04-15T12:35:53.842Z,95890.53
2023-04-15T12:41:14.550Z,95904.03
2023-04-15T12:46:35.398Z,95902.91
2023-04-15T12:51:57.499Z,95899.56
2023-04-15T12:57:18.142Z,95912.50
2023-04-15T13:02:38.917Z,95918.91
2023-04-15T13:08:00.063Z,95926.56
2023-04-15T13:13:21.139Z,95934.31
2023-04-15T13:18:42.294Z,95924.84
2023-04-15T13:24:03.807Z,95925.94
2023-04-15T13:29:24.685Z,95929.63
2023-04-15T13:34:45.515Z,95938.25
2023-04-15T13:40:07.561Z,95937.72
2023-04-15T13:45:28.783Z,95940.03
2023-04-15T13:50:49.452Z,95938.63
2023-04-15T13:56:10.378Z,95949.00
2023-04-15T14:01:31.295Z,95955.41
2023-04-15T14:06:51.986Z,95970.09
2023-04-15T14:12:12.690Z,95965.19
2023-04-15T14:17:33.780Z,95976.19
2023-04-15T14:22:54.683Z,95981.69
2023-04-15T14:28:15.858Z,95988.91
2023-04-15T14:33:36.731Z,95993.50
2023-04-15T14:38:57.519Z,96000.88
2023-04-15T14:44:18.629Z,96011.22
2023-04-15T14:49:39.273Z,96004.06
2023-04-15T14:54:59.893Z,96017.59
2023-04-15T15:00:20.635Z,96015.81
2023-04-15T15:05:43.255Z,96025.88
2023-04-15T15:11:03.993Z,96025.16
2023-04-15T15:16:25.362Z,96029.22
2023-04-15T15:21:47.057Z,96031.28
2023-04-15T15:27:08.139Z,96039.63
2023-04-15T15:32:28.966Z,96046.28
2023-04-15T15:37:49.616Z,96057.25
2023-04-15T15:43:11.342Z,96061.00
2023-04-15T15:48:32.195Z,96066.72
2023-04-15T15:53:53.004Z,96071.41
2023-04-15T15:59:13.865Z,96075.09
2023-04-15T16:04:34.697Z,96074.53
2023-04-15T16:09:55.924Z,96080.28
2023-04-15T16:15:16.742Z,96082.69
2023-04-15T16:20:39.044Z,96085.53
2023-04-15T16:25:59.920Z,96089.25
2023-04-15T16:31:20.744Z,96090.78
2023-04-15T16:36:41.651Z,96094.22
2023-04-15T16:42:03.340Z,96102.78
2023-04-15T16:47:24.083Z,96109.81
2023-04-15T16:52:44.795Z,96126.03
2023-04-15T16:58:08.358Z,96123.97
2023-04-15T17:03:29.302Z,96132.91
2023-04-15T17:08:51.660Z,96147.91
2023-04-15T17:14:12.483Z,96156.81
2023-04-15T17:19:33.721Z,96153.84
2023-04-15T17:24:54.415Z,96174.59
2023-04-15T17:30:15.204Z,96169.88
2023-04-15T17:35:36.107Z,96175.94
2023-04-15T17:40:57.205Z,96184.13
2023-04-15T17:46:19.416Z,96180.56
2023-04-15T17:51:40.254Z,96193.88
2023-04-15T17:57:03.272Z,96196.25
2023-04-15T18:02:24.306Z,96207.69
2023-04-15T18:07:45.755Z,96214.25
2023-04-15T18:13:06.670Z,96225.50
2023-04-15T18:18:28.255Z,96229.59
2023-04-15T18:23:49.363Z,96242.28
2023-04-15T18:29:10.775Z,96245.59
2023-04-15T18:34:31.568Z,96250.91
2023-04-15T18:39:52.403Z,96263.06
2023-04-15T18:45:13.442Z,96263.72
2023-04-15T18:50:34.147Z,96278.63
2023-04-15T18:55:56.372Z,96285.69
2023-04-15T19:01:17.553Z,96292.06
2023-04-15T19:06:38.215Z,96301.25
2023-04-15T19:11:59.019Z,96311.56
2023-04-15T19:17:19.822Z,96312.97
2023-04-15T19:22:41.716Z,96335.25
2023-04-15T19:28:02.575Z,96332.75
2023-04-15T19:33:23.393Z,96335.91
2023-04-15T19:38:44.204Z,96344.59
2023-04-15T19:44:05.962Z,96351.50
2023-04-15T19:49:27.051Z,96342.78
2023-04-15T19:54:47.878Z,96357.53
2023-04-15T20:00:09.622Z,96371.38
2023-04-15T20:05:30.512Z,96370.63
2023-04-15T20:10:51.527Z,96375.69
2023-04-15T20:16:13.412Z,96385.09
2023-04-15T20:21:37.532Z,96385.81
2023-04-15T20:26:58.615Z,96395.78
2023-04-15T20:32:19.572Z,96401.00
2023-04-15T20:37:43.661Z,96409.63
2023-04-15T20:43:04.471Z,96411.09
2023-04-15T20:48:25.130Z,96409.31
2023-04-15T20:53:45.982Z,96412.94
2023-04-15T20:59:07.016Z,96407.13
2023-04-15T21:04:28.021Z,96415.69
2023-04-15T21:09:49.322Z,96419.81
2023-04-15T21:15:10.758Z,96419.81
2023-04-15T21:20:31.374Z,96421.13
2023-04-15T21:25:51.961Z,96429.84
2023-04-15T21:31:12.540Z,96445.25
2023-04-15T21:36:34.002Z,96447.97
2023-04-15T21:41:55.033Z,96457.16
2023-04-15T21:47:16.071Z,96457.72
2023-04-15T21:52:37.262Z,96459.75
2023-04-15T21:57:57.926Z,96460.69
2023-04-15T22:03:18.976Z,96468.19
2023-04-15T22:08:53.136Z,96468.09
2023-04-15T22:14:17.544Z,96465.69
2023-04-15T22:19:38.176Z,96473.34
2023-04-15T22:24:58.834Z,96484.50
2023-04-15T22:30:19.548Z,96487.34
2023-04-15T22:35:40.263Z,96488.66
2023-04-15T22:41:01.300Z,96497.13
2023-04-15T22:46:22.188Z,96508.31
2023-04-15T22:51:43.699Z,96514.28
2023-04-15T22:57:04.742Z,96518.28
2023-04-15T23:02:25.630Z,96527.34
2023-04-15T23:07:46.555Z,96527.72
2023-04-15T23:13:07.600Z,96533.84
2023-04-15T23:18:28.512Z,96537.94
2023-04-15T23:23:49.576Z,96541.28
2023-04-15T23:29:10.455Z,96544.91
2023-04-15T23:34:31.553Z,96538.69
2023-04-15T23:39:52.283Z,96540.56
2023-04-15T23:45:13.332Z,96544.91
2023-04-15T23:50:34.134Z,96548.81
2023-04-15T23:55:54.781Z,96547.03
